sensor_id;sensor_type;location;lat;lon;timestamp;temperature;humidity
15455;DHT22;21057;51.024;7.540;2023-05-07T00:00:42;15.90;99.90
15455;DHT22;21057;51.024;7.540;2023-05-07T00:03:09;16.00;99.90
15455;DHT22;21057;51.024;7.540;2023-05-07T00:05:38;15.90;99.90
15455;DHT22;21057;51.024;7.540;2023-05-07T00:08:05;16.00;99.90
15455;DHT22;21057;51.024;7.540;2023-05-07T00:10:32;15.90;99.90
15455;DHT22;21057;51.024;7.540;2023-05-07T00:12:59;15.80;99.90
15455;DHT22;21057;51.024;7.540;2023-05-07T00:15:25;15.80;99.90
15455;DHT22;21057;51.024;7.540;2023-05-07T00:17:53;15.80;99.90
15455;DHT22;21057;51.024;7.540;2023-05-07T00:20:20;15.80;99.90
15455;DHT22;21057;51.024;7.540;2023-05-07T00:22:48;15.70;99.90
15455;DHT22;21057;51.024;7.540;2023-05-07T00:25:15;15.80;99.90
15455;DHT22;21057;51.024;7.540;2023-05-07T00:27:42;15.90;99.90
15455;DHT22;21057;51.024;7.540;2023-05-07T00:30:09;15.80;99.90
15455;DHT22;21057;51.024;7.540;2023-05-07T00:32:36;15.80;99.90
15455;DHT22;21057;51.024;7.540;2023-05-07T00:35:04;15.70;99.90
15455;DHT22;21057;51.024;7.540;2023-05-07T00:37:31;15.70;99.90
15455;DHT22;21057;51.024;7.540;2023-05-07T00:39:59;15.80;99.90
15455;DHT22;21057;51.024;7.540;2023-05-07T00:42:28;15.70;99.90
15455;DHT22;21057;51.024;7.540;2023-05-07T00:44:55;15.70;99.90
15455;DHT22;21057;51.024;7.540;2023-05-07T00:47:22;15.80;99.90
15455;DHT22;21057;51.024;7.540;2023-05-07T00:49:49;15.80;99.90
15455;DHT22;21057;51.024;7.540;2023-05-07T00:52:16;15.70;99.90
15455;DHT22;21057;51.024;7.540;2023-05-07T00:54:44;15.70;99.90
15455;DHT22;21057;51.024;7.540;2023-05-07T00:57:12;15.70;99.90
15455;DHT22;21057;51.024;7.540;2023-05-07T00:59:39;15.70;99.90
15455;DHT22;21057;51.024;7.540;2023-05-07T01:02:06;15.60;99.90
15455;DHT22;21057;51.024;7.540;2023-05-07T01:04:33;15.60;99.90
15455;DHT22;21057;51.024;7.540;2023-05-07T01:07:01;15.60;99.90
15455;DHT22;21057;51.024;7.540;2023-05-07T01:09:28;15.50;99.90
15455;DHT22;21057;51.024;7.540;2023-05-07T01:11:56;15.40;99.90
15455;DHT22;21057;51.024;7.540;2023-05-07T01:14:25;15.40;99.90
15455;DHT22;21057;51.024;7.540;2023-05-07T01:16:52;15.40;99.90
15455;DHT22;21057;51.024;7.540;2023-05-07T01:19:19;15.50;99.90
15455;DHT22;21057;51.024;7.540;2023-05-07T01:21:48;15.50;99.90
15455;DHT22;21057;51.024;7.540;2023-05-07T01:24:16;15.60;99.90
15455;DHT22;21057;51.024;7.540;2023-05-07T01:26:44;15.70;99.90
15455;DHT22;21057;51.024;7.540;2023-05-07T01:29:11;15.70;99.90
15455;DHT22;21057;51.024;7.540;2023-05-07T01:31:39;15.60;99.90
15455;DHT22;21057;51.024;7.540;2023-05-07T01:34:07;15.70;99.90
15455;DHT22;21057;51.024;7.540;2023-05-07T01:36:36;15.70;99.90
15455;DHT22;21057;51.024;7.540;2023-05-07T01:39:05;15.70;99.90
15455;DHT22;21057;51.024;7.540;2023-05-07T01:41:34;15.70;99.90
15455;DHT22;21057;51.024;7.540;2023-05-07T01:44:01;15.60;99.90
15455;DHT22;21057;51.024;7.540;2023-05-07T01:46:30;15.60;99.90
15455;DHT22;21057;51.024;7.540;2023-05-07T01:48:58;15.60;99.90
15455;DHT22;21057;51.024;7.540;2023-05-07T01:51:25;15.50;99.90
15455;DHT22;21057;51.024;7.540;2023-05-07T01:53:52;15.50;99.90
15455;DHT22;21057;51.024;7.540;2023-05-07T01:56:19;15.50;99.90
15455;DHT22;21057;51.024;7.540;2023-05-07T01:58:48;15.50;99.90
15455;DHT22;21057;51.024;7.540;2023-05-07T02:01:16;15.50;99.90
15455;DHT22;21057;51.024;7.540;2023-05-07T02:03:43;15.60;99.90
15455;DHT22;21057;51.024;7.540;2023-05-07T02:06:10;15.60;99.90
15455;DHT22;21057;51.024;7.540;2023-05-07T02:08:37;15.60;99.90
15455;DHT22;21057;51.024;7.540;2023-05-07T02:11:04;15.60;99.90
15455;DHT22;21057;51.024;7.540;2023-05-07T02:13:32;15.60;99.90
15455;DHT22;21057;51.024;7.540;2023-05-07T02:16:01;15.70;99.90
15455;DHT22;21057;51.024;7.540;2023-05-07T02:18:27;15.70;99.90
15455;DHT22;21057;51.024;7.540;2023-05-07T02:20:54;15.60;99.90
15455;DHT22;21057;51.024;7.540;2023-05-07T02:23:21;15.60;99.90
15455;DHT22;21057;51.024;7.540;2023-05-07T02:25:48;15.50;99.90
15455;DHT22;21057;51.024;7.540;2023-05-07T02:28:15;15.40;99.90
15455;DHT22;21057;51.024;7.540;2023-05-07T02:30:41;15.40;99.90
15455;DHT22;21057;51.024;7.540;2023-05-07T02:33:10;15.40;99.90
15455;DHT22;21057;51.024;7.540;2023-05-07T02:35:37;15.30;99.90
15455;DHT22;21057;51.024;7.540;2023-05-07T02:38:05;15.30;99.90
15455;DHT22;21057;51.024;7.540;2023-05-07T02:40:32;15.30;99.90
15455;DHT22;21057;51.024;7.540;2023-05-07T02:43:04;15.40;99.90
15455;DHT22;21057;51.024;7.540;2023-05-07T02:45:31;15.40;99.90
15455;DHT22;21057;51.024;7.540;2023-05-07T02:47:57;15.40;99.90
15455;DHT22;21057;51.024;7.540;2023-05-07T02:50:25;15.50;99.90
15455;DHT22;21057;51.024;7.540;2023-05-07T02:52:52;15.50;99.90
15455;DHT22;21057;51.024;7.540;2023-05-07T02:55:19;15.60;99.90
15455;DHT22;21057;51.024;7.540;2023-05-07T02:57:46;15.60;99.90
15455;DHT22;21057;51.024;7.540;2023-05-07T03:00:15;15.70;99.90
15455;DHT22;21057;51.024;7.540;2023-05-07T03:02:42;15.70;99.90
15455;DHT22;21057;51.024;7.540;2023-05-07T03:05:09;15.60;99.90
15455;DHT22;21057;51.024;7.540;2023-05-07T03:07:37;15.60;99.90
15455;DHT22;21057;51.024;7.540;2023-05-07T03:10:05;15.60;99.90
15455;DHT22;21057;51.024;7.540;2023-05-07T03:12:32;15.60;99.90
15455;DHT22;21057;51.024;7.540;2023-05-07T03:14:59;15.50;99.90
15455;DHT22;21057;51.024;7.540;2023-05-07T03:17:26;15.50;99.90
15455;DHT22;21057;51.024;7.540;2023-05-07T03:19:53;15.50;99.90
15455;DHT22;21057;51.024;7.540;2023-05-07T03:22:19;15.70;99.90
15455;DHT22;21057;51.024;7.540;2023-05-07T03:24:48;15.60;99.90
15455;DHT22;21057;51.024;7.540;2023-05-07T03:27:14;15.70;99.90
15455;DHT22;21057;51.024;7.540;2023-05-07T03:29:41;15.60;99.90
15455;DHT22;21057;51.024;7.540;2023-05-07T03:32:08;15.70;99.90
15455;DHT22;21057;51.024;7.540;2023-05-07T03:34:35;15.60;99.90
15455;DHT22;21057;51.024;7.540;2023-05-07T03:37:02;15.60;99.90
15455;DHT22;21057;51.024;7.540;2023-05-07T03:39:28;15.60;99.90
15455;DHT22;21057;51.024;7.540;2023-05-07T03:41:57;15.50;99.90
15455;DHT22;21057;51.024;7.540;2023-05-07T03:44:24;15.40;99.90
15455;DHT22;21057;51.024;7.540;2023-05-07T03:46:51;15.40;99.90
15455;DHT22;21057;51.024;7.540;2023-05-07T03:49:17;15.50;99.90
15455;DHT22;21057;51.024;7.540;2023-05-07T03:51:44;15.50;99.90
15455;DHT22;21057;51.024;7.540;2023-05-07T03:54:11;15.40;99.90
15455;DHT22;21057;51.024;7.540;2023-05-07T03:56:38;15.40;99.90
15455;DHT22;21057;51.024;7.540;2023-05-07T03:59:06;15.30;99.90
15455;DHT22;21057;51.024;7.540;2023-05-07T04:01:33;15.30;99.90
15455;DHT22;21057;51.024;7.540;2023-05-07T04:04:00;15.40;99.90
15455;DHT22;21057;51.024;7.540;2023-05-07T04:06:27;15.40;99.90
15455;DHT22;21057;51.024;7.540;2023-05-07T04:08:54;15.40;99.90
15455;DHT22;21057;51.024;7.540;2023-05-07T04:11:20;15.40;99.90
15455;DHT22;21057;51.024;7.540;2023-05-07T04:13:47;15.40;99.90
15455;DHT22;21057;51.024;7.540;2023-05-07T04:16:15;15.50;99.90
15455;DHT22;21057;51.024;7.540;2023-05-07T04:18:42;15.50;99.90
15455;DHT22;21057;51.024;7.540;2023-05-07T04:21:14;15.40;99.90
15455;DHT22;21057;51.024;7.540;2023-05-07T04:23:41;15.40;99.90
15455;DHT22;21057;51.024;7.540;2023-05-07T04:26:08;15.40;99.90
15455;DHT22;21057;51.024;7.540;2023-05-07T04:28:35;15.50;99.90
15455;DHT22;21057;51.024;7.540;2023-05-07T04:31:02;15.50;99.90
15455;DHT22;21057;51.024;7.540;2023-05-07T04:33:30;15.50;99.90
15455;DHT22;21057;51.024;7.540;2023-05-07T04:35:58;15.60;99.90
15455;DHT22;21057;51.024;7.540;2023-05-07T04:38:28;15.60;99.90
15455;DHT22;21057;51.024;7.540;2023-05-07T04:40:55;15.60;99.90
15455;DHT22;21057;51.024;7.540;2023-05-07T04:43:22;15.60;99.90
15455;DHT22;21057;51.024;7.540;2023-05-07T04:45:50;15.50;99.90
15455;DHT22;21057;51.024;7.540;2023-05-07T04:48:17;15.50;99.90
15455;DHT22;21057;51.024;7.540;2023-05-07T04:50:47;15.50;99.90
15455;DHT22;21057;51.024;7.540;2023-05-07T04:53:14;15.50;99.90
15455;DHT22;21057;51.024;7.540;2023-05-07T04:55:41;15.50;99.90
15455;DHT22;21057;51.024;7.540;2023-05-07T04:58:08;15.50;99.90
15455;DHT22;21057;51.024;7.540;2023-05-07T05:00:35;15.60;99.90
15455;DHT22;21057;51.024;7.540;2023-05-07T05:03:02;15.60;99.90
15455;DHT22;21057;51.024;7.540;2023-05-07T05:05:28;15.60;99.90
15455;DHT22;21057;51.024;7.540;2023-05-07T05:07:57;15.70;99.90
15455;DHT22;21057;51.024;7.540;2023-05-07T05:10:24;15.80;99.90
15455;DHT22;21057;51.024;7.540;2023-05-07T05:12:50;15.90;99.90
15455;DHT22;21057;51.024;7.540;2023-05-07T05:15:17;15.90;99.90
15455;DHT22;21057;51.024;7.540;2023-05-07T05:17:44;15.90;99.90
15455;DHT22;21057;51.024;7.540;2023-05-07T05:20:11;15.90;99.90
15455;DHT22;21057;51.024;7.540;2023-05-07T05:22:38;15.90;99.90
15455;DHT22;21057;51.024;7.540;2023-05-07T05:25:07;16.00;99.90
15455;DHT22;21057;51.024;7.540;2023-05-07T05:27:34;16.10;99.90
15455;DHT22;21057;51.024;7.540;2023-05-07T05:30:01;16.10;99.90
15455;DHT22;21057;51.024;7.540;2023-05-07T05:32:28;16.10;99.90
15455;DHT22;21057;51.024;7.540;2023-05-07T05:34:55;16.10;99.90
15455;DHT22;21057;51.024;7.540;2023-05-07T05:37:22;16.20;99.90
15455;DHT22;21057;51.024;7.540;2023-05-07T05:39:48;16.20;99.90
15455;DHT22;21057;51.024;7.540;2023-05-07T05:42:17;16.20;99.90
15455;DHT22;21057;51.024;7.540;2023-05-07T05:44:43;16.20;99.90
15455;DHT22;21057;51.024;7.540;2023-05-07T05:47:10;16.30;99.90
15455;DHT22;21057;51.024;7.540;2023-05-07T05:49:37;16.30;99.90
15455;DHT22;21057;51.024;7.540;2023-05-07T05:52:04;16.30;99.90
15455;DHT22;21057;51.024;7.540;2023-05-07T05:54:31;16.40;99.90
15455;DHT22;21057;51.024;7.540;2023-05-07T05:56:58;16.60;99.90
15455;DHT22;21057;51.024;7.540;2023-05-07T05:59:26;16.70;99.90
15455;DHT22;21057;51.024;7.540;2023-05-07T06:01:53;16.80;99.90
15455;DHT22;21057;51.024;7.540;2023-05-07T06:04:20;17.00;99.90
15455;DHT22;21057;51.024;7.540;2023-05-07T06:06:46;17.00;99.90
15455;DHT22;21057;51.024;7.540;2023-05-07T06:09:13;17.10;99.90
15455;DHT22;21057;51.024;7.540;2023-05-07T06:11:40;17.10;99.90
15455;DHT22;21057;51.024;7.540;2023-05-07T06:14:07;17.40;99.90
15455;DHT22;21057;51.024;7.540;2023-05-07T06:16:35;17.60;99.90
15455;DHT22;21057;51.024;7.540;2023-05-07T06:19:03;17.70;99.90
15455;DHT22;21057;51.024;7.540;2023-05-07T06:21:30;17.80;99.90
15455;DHT22;21057;51.024;7.540;2023-05-07T06:23:57;18.00;99.90
15455;DHT22;21057;51.024;7.540;2023-05-07T06:26:23;18.20;99.90
15455;DHT22;21057;51.024;7.540;2023-05-07T06:28:50;18.20;99.90
15455;DHT22;21057;51.024;7.540;2023-05-07T06:31:19;18.40;99.90
15455;DHT22;21057;51.024;7.540;2023-05-07T06:33:48;18.40;99.90
15455;DHT22;21057;51.024;7.540;2023-05-07T06:36:15;18.40;99.90
15455;DHT22;21057;51.024;7.540;2023-05-07T06:38:42;18.50;99.90
15455;DHT22;21057;51.024;7.540;2023-05-07T06:41:09;18.70;99.90
15455;DHT22;21057;51.024;7.540;2023-05-07T06:43:36;18.70;99.90
15455;DHT22;21057;51.024;7.540;2023-05-07T06:46:03;19.00;99.90
15455;DHT22;21057;51.024;7.540;2023-05-07T06:48:30;19.00;99.90
15455;DHT22;21057;51.024;7.540;2023-05-07T06:50:58;19.20;99.90
15455;DHT22;21057;51.024;7.540;2023-05-07T06:53:25;19.30;99.90
15455;DHT22;21057;51.024;7.540;2023-05-07T06:55:53;19.30;99.90
15455;DHT22;21057;51.024;7.540;2023-05-07T06:58:20;19.50;99.90
15455;DHT22;21057;51.024;7.540;2023-05-07T07:00:47;19.60;99.90
15455;DHT22;21057;51.024;7.540;2023-05-07T07:03:14;19.50;99.90
15455;DHT22;21057;51.024;7.540;2023-05-07T07:05:41;19.50;99.90
15455;DHT22;21057;51.024;7.540;2023-05-07T07:08:11;19.50;99.90
15455;DHT22;21057;51.024;7.540;2023-05-07T07:10:38;19.70;99.90
15455;DHT22;21057;51.024;7.540;2023-05-07T07:13:05;19.80;99.90
15455;DHT22;21057;51.024;7.540;2023-05-07T07:15:31;19.80;99.90
15455;DHT22;21057;51.024;7.540;2023-05-07T07:18:01;19.90;99.90
15455;DHT22;21057;51.024;7.540;2023-05-07T07:20:28;20.10;99.90
15455;DHT22;21057;51.024;7.540;2023-05-07T07:22:55;20.20;99.90
15455;DHT22;21057;51.024;7.540;2023-05-07T07:25:23;20.10;99.90
15455;DHT22;21057;51.024;7.540;2023-05-07T07:27:50;20.10;99.90
15455;DHT22;21057;51.024;7.540;2023-05-07T07:30:17;20.20;99.90
15455;DHT22;21057;51.024;7.540;2023-05-07T07:32:44;20.00;99.90
15455;DHT22;21057;51.024;7.540;2023-05-07T07:35:10;20.10;99.90
15455;DHT22;21057;51.024;7.540;2023-05-07T07:37:37;20.10;99.90
15455;DHT22;21057;51.024;7.540;2023-05-07T07:40:05;20.20;99.90
15455;DHT22;21057;51.024;7.540;2023-05-07T07:42:33;20.30;99.90
15455;DHT22;21057;51.024;7.540;2023-05-07T07:45:00;20.60;99.90
15455;DHT22;21057;51.024;7.540;2023-05-07T07:47:28;20.60;99.90
15455;DHT22;21057;51.024;7.540;2023-05-07T07:49:55;20.70;99.90
15455;DHT22;21057;51.024;7.540;2023-05-07T07:52:22;21.00;99.90
15455;DHT22;21057;51.024;7.540;2023-05-07T07:54:49;20.80;99.90
15455;DHT22;21057;51.024;7.540;2023-05-07T07:57:17;21.00;99.90
15455;DHT22;21057;51.024;7.540;2023-05-07T07:59:45;21.20;99.90
15455;DHT22;21057;51.024;7.540;2023-05-07T08:02:12;21.50;99.90
15455;DHT22;21057;51.024;7.540;2023-05-07T08:04:38;21.40;99.90
15455;DHT22;21057;51.024;7.540;2023-05-07T08:07:05;21.60;99.90
15455;DHT22;21057;51.024;7.540;2023-05-07T08:09:32;21.60;99.90
15455;DHT22;21057;51.024;7.540;2023-05-07T08:11:59;21.60;99.90
15455;DHT22;21057;51.024;7.540;2023-05-07T08:14:26;21.80;99.90
15455;DHT22;21057;51.024;7.540;2023-05-07T08:16:55;22.10;99.90
15455;DHT22;21057;51.024;7.540;2023-05-07T08:19:22;22.40;99.90
15455;DHT22;21057;51.024;7.540;2023-05-07T08:21:49;22.40;99.90
15455;DHT22;21057;51.024;7.540;2023-05-07T08:24:16;22.50;99.90
15455;DHT22;21057;51.024;7.540;2023-05-07T08:26:43;22.40;99.90
15455;DHT22;21057;51.024;7.540;2023-05-07T08:29:10;22.40;99.90
15455;DHT22;21057;51.024;7.540;2023-05-07T08:31:37;22.50;99.90
15455;DHT22;21057;51.024;7.540;2023-05-07T08:34:06;22.40;99.90
15455;DHT22;21057;51.024;7.540;2023-05-07T08:36:33;22.40;99.90
15455;DHT22;21057;51.024;7.540;2023-05-07T08:39:00;22.30;99.90
15455;DHT22;21057;51.024;7.540;2023-05-07T08:41:27;22.50;99.90
15455;DHT22;21057;51.024;7.540;2023-05-07T08:43:57;22.60;99.90
15455;DHT22;21057;51.024;7.540;2023-05-07T08:46:25;22.90;99.90
15455;DHT22;21057;51.024;7.540;2023-05-07T08:48:52;22.90;99.90
15455;DHT22;21057;51.024;7.540;2023-05-07T08:51:20;22.90;99.90
15455;DHT22;21057;51.024;7.540;2023-05-07T08:53:48;23.10;99.90
15455;DHT22;21057;51.024;7.540;2023-05-07T08:56:16;23.20;99.90
15455;DHT22;21057;51.024;7.540;2023-05-07T08:58:43;23.50;99.90
15455;DHT22;21057;51.024;7.540;2023-05-07T09:01:13;23.80;99.90
15455;DHT22;21057;51.024;7.540;2023-05-07T09:03:41;24.10;99.90
15455;DHT22;21057;51.024;7.540;2023-05-07T09:06:10;24.10;99.90
15455;DHT22;21057;51.024;7.540;2023-05-07T09:08:38;24.20;99.90
15455;DHT22;21057;51.024;7.540;2023-05-07T09:11:05;24.10;99.90
15455;DHT22;21057;51.024;7.540;2023-05-07T09:13:32;24.00;99.90
15455;DHT22;21057;51.024;7.540;2023-05-07T09:16:06;23.90;99.90
15455;DHT22;21057;51.024;7.540;2023-05-07T09:18:40;23.70;99.20
15455;DHT22;21057;51.024;7.540;2023-05-07T09:21:09;23.60;99.80
15455;DHT22;21057;51.024;7.540;2023-05-07T09:23:36;23.40;99.90
15455;DHT22;21057;51.024;7.540;2023-05-07T09:26:05;23.70;99.90
15455;DHT22;21057;51.024;7.540;2023-05-07T09:28:38;23.90;99.90
15455;DHT22;21057;51.024;7.540;2023-05-07T09:31:06;24.50;99.90
15455;DHT22;21057;51.024;7.540;2023-05-07T09:33:33;24.90;99.80
15455;DHT22;21057;51.024;7.540;2023-05-07T09:36:02;25.30;99.50
15455;DHT22;21057;51.024;7.540;2023-05-07T09:38:30;25.60;99.00
15455;DHT22;21057;51.024;7.540;2023-05-07T09:41:02;26.00;95.40
15455;DHT22;21057;51.024;7.540;2023-05-07T09:43:33;25.80;95.60
15455;DHT22;21057;51.024;7.540;2023-05-07T09:46:06;26.00;96.00
15455;DHT22;21057;51.024;7.540;2023-05-07T09:48:37;26.40;97.30
15455;DHT22;21057;51.024;7.540;2023-05-07T09:51:11;26.50;95.70
15455;DHT22;21057;51.024;7.540;2023-05-07T09:53:42;26.10;92.40
15455;DHT22;21057;51.024;7.540;2023-05-07T09:56:12;25.80;94.10
15455;DHT22;21057;51.024;7.540;2023-05-07T09:58:42;25.30;93.90
15455;DHT22;21057;51.024;7.540;2023-05-07T10:01:10;25.40;93.30
15455;DHT22;21057;51.024;7.540;2023-05-07T10:03:40;25.40;94.80
15455;DHT22;21057;51.024;7.540;2023-05-07T10:06:08;25.40;95.40
15455;DHT22;21057;51.024;7.540;2023-05-07T10:08:36;25.10;95.50
15455;DHT22;21057;51.024;7.540;2023-05-07T10:11:03;25.10;94.40
15455;DHT22;21057;51.024;7.540;2023-05-07T10:13:30;24.80;94.40
15455;DHT22;21057;51.024;7.540;2023-05-07T10:15:59;24.90;94.30
15455;DHT22;21057;51.024;7.540;2023-05-07T10:18:26;24.70;94.80
15455;DHT22;21057;51.024;7.540;2023-05-07T10:21:01;24.50;94.40
15455;DHT22;21057;51.024;7.540;2023-05-07T10:23:29;24.60;95.00
15455;DHT22;21057;51.024;7.540;2023-05-07T10:25:57;25.20;94.90
15455;DHT22;21057;51.024;7.540;2023-05-07T10:28:26;26.20;94.60
15455;DHT22;21057;51.024;7.540;2023-05-07T10:31:03;26.90;93.10
15455;DHT22;21057;51.024;7.540;2023-05-07T10:33:34;27.50;91.50
15455;DHT22;21057;51.024;7.540;2023-05-07T10:36:03;27.70;90.80
15455;DHT22;21057;51.024;7.540;2023-05-07T10:38:33;27.50;90.40
15455;DHT22;21057;51.024;7.540;2023-05-07T10:41:00;27.20;90.10
15455;DHT22;21057;51.024;7.540;2023-05-07T10:43:39;26.80;87.80
15455;DHT22;21057;51.024;7.540;2023-05-07T10:46:17;26.20;87.60
15455;DHT22;21057;51.024;7.540;2023-05-07T10:49:06;25.60;90.00
15455;DHT22;21057;51.024;7.540;2023-05-07T10:51:33;25.20;92.50
15455;DHT22;21057;51.024;7.540;2023-05-07T10:54:27;24.90;92.60
15455;DHT22;21057;51.024;7.540;2023-05-07T10:56:54;24.50;93.30
15455;DHT22;21057;51.024;7.540;2023-05-07T10:59:37;24.20;95.60
15455;DHT22;21057;51.024;7.540;2023-05-07T11:02:11;23.90;93.90
15455;DHT22;21057;51.024;7.540;2023-05-07T11:04:39;23.80;94.30
15455;DHT22;21057;51.024;7.540;2023-05-07T11:07:26;23.70;95.00
15455;DHT22;21057;51.024;7.540;2023-05-07T11:09:57;23.90;94.70
15455;DHT22;21057;51.024;7.540;2023-05-07T11:15:43;24.00;94.60
15455;DHT22;21057;51.024;7.540;2023-05-07T11:18:13;24.20;93.90
15455;DHT22;21057;51.024;7.540;2023-05-07T11:21:02;24.30;94.30
15455;DHT22;21057;51.024;7.540;2023-05-07T11:23:57;24.10;93.40
15455;DHT22;21057;51.024;7.540;2023-05-07T11:26:26;24.20;92.60
15455;DHT22;21057;51.024;7.540;2023-05-07T11:28:53;23.90;92.80
15455;DHT22;21057;51.024;7.540;2023-05-07T11:31:22;23.80;93.20
15455;DHT22;21057;51.024;7.540;2023-05-07T11:33:52;23.70;94.50
15455;DHT22;21057;51.024;7.540;2023-05-07T11:36:19;23.90;93.60
15455;DHT22;21057;51.024;7.540;2023-05-07T11:38:48;24.30;92.10
15455;DHT22;21057;51.024;7.540;2023-05-07T11:41:16;24.90;92.70
15455;DHT22;21057;51.024;7.540;2023-05-07T11:43:57;25.70;92.40
15455;DHT22;21057;51.024;7.540;2023-05-07T11:46:25;26.00;92.20
15455;DHT22;21057;51.024;7.540;2023-05-07T11:48:54;26.30;91.10
15455;DHT22;21057;51.024;7.540;2023-05-07T11:51:23;26.30;91.80
15455;DHT22;21057;51.024;7.540;2023-05-07T11:53:52;26.20;90.90
15455;DHT22;21057;51.024;7.540;2023-05-07T11:56:19;25.80;88.60
15455;DHT22;21057;51.024;7.540;2023-05-07T11:58:47;26.00;89.90
15455;DHT22;21057;51.024;7.540;2023-05-07T12:01:15;25.80;92.10
15455;DHT22;21057;51.024;7.540;2023-05-07T12:03:44;25.80;90.20
15455;DHT22;21057;51.024;7.540;2023-05-07T12:06:15;26.00;90.70
15455;DHT22;21057;51.024;7.540;2023-05-07T12:08:43;26.10;91.40
15455;DHT22;21057;51.024;7.540;2023-05-07T12:11:13;26.90;91.40
15455;DHT22;21057;51.024;7.540;2023-05-07T12:13:41;27.00;88.30
15455;DHT22;21057;51.024;7.540;2023-05-07T12:16:09;26.80;90.20
15455;DHT22;21057;51.024;7.540;2023-05-07T12:18:36;26.80;90.70
15455;DHT22;21057;51.024;7.540;2023-05-07T12:21:05;26.20;88.10
15455;DHT22;21057;51.024;7.540;2023-05-07T12:23:35;25.90;89.80
15455;DHT22;21057;51.024;7.540;2023-05-07T12:26:02;25.40;91.00
15455;DHT22;21057;51.024;7.540;2023-05-07T12:28:29;25.20;91.40
15455;DHT22;21057;51.024;7.540;2023-05-07T12:30:57;25.20;91.10
15455;DHT22;21057;51.024;7.540;2023-05-07T12:33:25;25.10;90.70
15455;DHT22;21057;51.024;7.540;2023-05-07T12:35:54;25.00;91.00
15455;DHT22;21057;51.024;7.540;2023-05-07T12:38:21;25.00;92.20
15455;DHT22;21057;51.024;7.540;2023-05-07T12:40:50;24.60;92.40
15455;DHT22;21057;51.024;7.540;2023-05-07T12:43:21;24.60;92.50
15455;DHT22;21057;51.024;7.540;2023-05-07T12:45:49;24.70;90.20
15455;DHT22;21057;51.024;7.540;2023-05-07T12:48:17;24.50;91.80
15455;DHT22;21057;51.024;7.540;2023-05-07T12:50:45;24.30;92.60
15455;DHT22;21057;51.024;7.540;2023-05-07T12:53:15;24.20;93.80
15455;DHT22;21057;51.024;7.540;2023-05-07T12:55:43;24.00;93.60
15455;DHT22;21057;51.024;7.540;2023-05-07T12:58:17;23.90;92.50
15455;DHT22;21057;51.024;7.540;2023-05-07T13:00:46;23.80;93.00
15455;DHT22;21057;51.024;7.540;2023-05-07T13:03:21;23.80;95.60
15455;DHT22;21057;51.024;7.540;2023-05-07T13:05:49;23.70;94.50
15455;DHT22;21057;51.024;7.540;2023-05-07T13:08:27;23.70;93.60
15455;DHT22;21057;51.024;7.540;2023-05-07T13:10:54;23.70;94.00
15455;DHT22;21057;51.024;7.540;2023-05-07T13:13:22;23.60;94.40
15455;DHT22;21057;51.024;7.540;2023-05-07T13:15:49;23.60;94.10
15455;DHT22;21057;51.024;7.540;2023-05-07T13:18:16;23.60;95.40
15455;DHT22;21057;51.024;7.540;2023-05-07T13:20:43;23.50;95.30
15455;DHT22;21057;51.024;7.540;2023-05-07T13:23:10;23.40;95.20
15455;DHT22;21057;51.024;7.540;2023-05-07T13:25:37;23.40;95.20
15455;DHT22;21057;51.024;7.540;2023-05-07T13:28:04;23.40;94.70
15455;DHT22;21057;51.024;7.540;2023-05-07T13:30:32;23.30;94.00
15455;DHT22;21057;51.024;7.540;2023-05-07T13:32:59;23.20;94.90
15455;DHT22;21057;51.024;7.540;2023-05-07T13:35:26;23.20;95.90
15455;DHT22;21057;51.024;7.540;2023-05-07T13:37:53;23.30;94.90
15455;DHT22;21057;51.024;7.540;2023-05-07T13:40:21;23.00;96.30
15455;DHT22;21057;51.024;7.540;2023-05-07T13:42:48;22.80;98.10
15455;DHT22;21057;51.024;7.540;2023-05-07T13:45:16;22.60;99.20
15455;DHT22;21057;51.024;7.540;2023-05-07T13:47:44;22.30;99.90
15455;DHT22;21057;51.024;7.540;2023-05-07T13:50:12;22.20;99.90
15455;DHT22;21057;51.024;7.540;2023-05-07T13:52:41;22.10;99.90
15455;DHT22;21057;51.024;7.540;2023-05-07T13:55:11;22.00;99.90
15455;DHT22;21057;51.024;7.540;2023-05-07T13:57:38;21.70;99.90
15455;DHT22;21057;51.024;7.540;2023-05-07T14:00:06;21.40;99.90
15455;DHT22;21057;51.024;7.540;2023-05-07T14:02:33;21.20;99.90
15455;DHT22;21057;51.024;7.540;2023-05-07T14:05:01;21.10;99.90
15455;DHT22;21057;51.024;7.540;2023-05-07T14:07:28;21.20;99.90
15455;DHT22;21057;51.024;7.540;2023-05-07T14:09:56;21.10;99.90
15455;DHT22;21057;51.024;7.540;2023-05-07T14:12:23;20.90;99.90
15455;DHT22;21057;51.024;7.540;2023-05-07T14:14:50;20.80;99.90
15455;DHT22;21057;51.024;7.540;2023-05-07T14:17:17;20.60;99.90
15455;DHT22;21057;51.024;7.540;2023-05-07T14:19:44;20.50;99.90
15455;DHT22;21057;51.024;7.540;2023-05-07T14:22:13;20.40;99.90
15455;DHT22;21057;51.024;7.540;2023-05-07T14:24:40;20.30;99.90
15455;DHT22;21057;51.024;7.540;2023-05-07T14:27:06;20.20;99.90
15455;DHT22;21057;51.024;7.540;2023-05-07T14:29:33;20.20;99.90
15455;DHT22;21057;51.024;7.540;2023-05-07T14:32:01;20.20;99.90
15455;DHT22;21057;51.024;7.540;2023-05-07T14:34:29;20.00;99.90
15455;DHT22;21057;51.024;7.540;2023-05-07T14:36:56;19.60;99.90
15455;DHT22;21057;51.024;7.540;2023-05-07T14:39:24;19.70;99.90
15455;DHT22;21057;51.024;7.540;2023-05-07T14:41:51;19.70;99.90
15455;DHT22;21057;51.024;7.540;2023-05-07T14:44:20;19.50;99.90
15455;DHT22;21057;51.024;7.540;2023-05-07T14:46:46;19.30;99.90
15455;DHT22;21057;51.024;7.540;2023-05-07T14:49:14;19.10;99.90
15455;DHT22;21057;51.024;7.540;2023-05-07T14:51:43;19.10;99.90
15455;DHT22;21057;51.024;7.540;2023-05-07T14:54:10;18.90;99.90
15455;DHT22;21057;51.024;7.540;2023-05-07T14:56:39;18.80;99.90
15455;DHT22;21057;51.024;7.540;2023-05-07T14:59:06;18.80;99.90
15455;DHT22;21057;51.024;7.540;2023-05-07T15:01:34;18.70;99.90
15455;DHT22;21057;51.024;7.540;2023-05-07T15:04:01;18.60;99.90
15455;DHT22;21057;51.024;7.540;2023-05-07T15:06:29;18.80;99.90
15455;DHT22;21057;51.024;7.540;2023-05-07T15:08:56;18.90;99.90
15455;DHT22;21057;51.024;7.540;2023-05-07T15:11:23;19.00;99.90
15455;DHT22;21057;51.024;7.540;2023-05-07T15:13:51;19.00;99.90
15455;DHT22;21057;51.024;7.540;2023-05-07T15:16:18;19.20;99.90
15455;DHT22;21057;51.024;7.540;2023-05-07T15:18:45;19.10;99.90
15455;DHT22;21057;51.024;7.540;2023-05-07T15:21:13;19.00;99.90
15455;DHT22;21057;51.024;7.540;2023-05-07T15:23:40;18.90;99.90
15455;DHT22;21057;51.024;7.540;2023-05-07T15:26:07;18.80;99.90
15455;DHT22;21057;51.024;7.540;2023-05-07T15:28:34;18.80;99.90
15455;DHT22;21057;51.024;7.540;2023-05-07T15:31:02;18.70;99.90
15455;DHT22;21057;51.024;7.540;2023-05-07T15:33:30;18.70;99.90
15455;DHT22;21057;51.024;7.540;2023-05-07T15:35:57;18.70;99.90
15455;DHT22;21057;51.024;7.540;2023-05-07T15:38:25;18.60;99.90